Portada
METAR-TAF:

METAR-TAF

Aeroports :

Siem Reap, Cambodja

latitud: 13-22N, longitud: 103-51E, altitud: 15 m

Observació

L'informe es va fer fa 14 minuts, a les 14:30 UTC
Vent 2 kt del Est/Nord-Est
Temperatura 27°C
Humitat 70%
Pressió 1010 hPa
Visibilitat: 9000 m
Escasses núvols a una alçada de 1700 ft
Núvols disperses a una alçada de 4000 ft

METAR: VDSR 261430Z 07002KT 9000 FEW017 SCT040 27/21 Q1010

Hora: 21:44 (14:44 UTC)

Pronòstic

L'informe es va fer fa 3 hores i 44 minuts, a les 11:00 UTC
Pronòstic vàlid del 26 a les 12 UTC al 27 a les 06 UTC
Vent 7 kt del Sud
Visibilitat 10 km o més
Núvols disperses a una alçada de 1700 ft

TAF: VDSR 261100Z 2612/2706 17007KT 9999 SCT017

Observacions i pronòstics meteorològics de més de 4000 aeroports (METAR i TAF).

Les estacions disponibles són els punts grocs i vermells al mapa.

Posi el ratolí al punt desitjat per veure el nom de l'estació.

Feu clic per veure les observacions i els pronòstics meteorològics.

Per canviar el mapa: feu clic els botons verds amb una creu de color negre per apropar; al botó verd amb un guió per allunyar la imatge; o en les fletxes verdes per a mapes adjacents.


METAR-TAF: